Time;durP1;ratioP1;P1;durP2;ratioP2;P2;SDS_P1;SDS_P2;PMS_P1;PMS_P2;Temp;Humidity;BMP_temperature;BMP_pressure;BME280_temperature;BME280_humidity;BME280_pressure;Samples;Min_cycle;Max_cycle;Signal;HPM_P1;HPM_P2
2024/01/29 00:01:34;;;;;;;6.33;3.40;;;4.30;1.00;;;;;;5035994;28;20910;-77
2024/01/29 00:03:59;;;;;;;4.30;3.37;;;4.20;1.00;;;;;;5047590;28;20212;-74
2024/01/29 00:06:25;;;;;;;5.60;4.17;;;4.00;1.00;;;;;;5031865;28;20190;-78
2024/01/29 00:08:52;;;;;;;7.50;3.87;;;3.90;1.00;;;;;;5033587;28;20224;-77
2024/01/29 00:11:18;;;;;;;4.20;3.50;;;3.70;1.00;;;;;;5037659;28;20197;-77
2024/01/29 00:13:45;;;;;;;4.53;3.40;;;3.60;1.00;;;;;;5039021;28;20540;-76
2024/01/29 00:16:14;;;;;;;5.53;3.50;;;3.40;1.00;;;;;;5035085;28;20826;-78
2024/01/29 00:18:39;;;;;;;4.07;3.20;;;3.40;1.00;;;;;;5047410;28;20420;-77
2024/01/29 00:21:05;;;;;;;5.37;3.93;;;3.20;1.00;;;;;;5040809;28;20530;-76
2024/01/29 00:23:30;;;;;;;6.07;4.00;;;3.20;1.00;;;;;;5033802;28;20632;-77
2024/01/29 00:25:56;;;;;;;6.10;4.20;;;3.10;1.00;;;;;;5037631;28;20647;-77
2024/01/29 00:28:22;;;;;;;8.20;4.10;;;2.90;1.00;;;;;;5049310;28;20227;-77
2024/01/29 00:30:47;;;;;;;6.20;3.70;;;2.80;1.00;;;;;;5042166;28;20439;-77
2024/01/29 00:33:13;;;;;;;6.87;4.30;;;2.80;1.00;;;;;;5034597;28;20178;-76
2024/01/29 00:35:39;;;;;;;5.67;4.07;;;2.80;1.00;;;;;;5047384;28;20177;-77
2024/01/29 00:38:05;;;;;;;5.70;3.80;;;2.70;1.00;;;;;;5047470;28;20733;-74
2024/01/29 00:40:32;;;;;;;6.87;4.10;;;2.60;1.00;;;;;;5039067;28;20248;-75
2024/01/29 00:42:59;;;;;;;7.23;3.60;;;2.60;1.00;;;;;;5042738;28;20182;-75
2024/01/29 00:45:24;;;;;;;5.30;3.73;;;2.60;1.00;;;;;;5031587;28;20506;-77
2024/01/29 00:47:50;;;;;;;6.63;4.00;;;2.40;1.00;;;;;;5031733;28;20425;-76
2024/01/29 00:50:15;;;;;;;5.37;3.67;;;2.30;1.00;;;;;;5039703;28;20643;-76
2024/01/29 00:52:41;;;;;;;3.97;3.57;;;2.60;1.00;;;;;;5045033;28;20555;-78
2024/01/29 00:55:07;;;;;;;5.17;3.67;;;2.20;1.00;;;;;;5047477;28;20243;-74
2024/01/29 00:57:32;;;;;;;6.77;3.83;;;2.20;1.00;;;;;;5041699;28;20187;-78
2024/01/29 00:59:58;;;;;;;5.33;3.70;;;2.40;1.00;;;;;;5047472;28;20189;-77
2024/01/29 01:02:23;;;;;;;6.10;3.20;;;2.10;1.00;;;;;;5042148;28;20208;-77
2024/01/29 01:04:49;;;;;;;3.77;3.37;;;2.10;1.00;;;;;;5042785;28;20231;-77
2024/01/29 01:07:15;;;;;;;4.67;3.43;;;2.20;1.00;;;;;;5048490;28;20188;-75
2024/01/29 01:09:40;;;;;;;6.13;4.00;;;2.10;1.00;;;;;;5042527;28;20197;-76
2024/01/29 01:12:06;;;;;;;5.13;3.73;;;2.10;1.00;;;;;;5036159;28;20209;-79
2024/01/29 01:14:31;;;;;;;9.13;4.10;;;2.10;1.00;;;;;;5031326;28;20181;-77
2024/01/29 01:16:57;;;;;;;4.57;3.40;;;2.10;1.00;;;;;;5044627;28;20192;-76
2024/01/29 01:19:23;;;;;;;5.00;3.60;;;;;;;;;;5034031;28;20190;-76
2024/01/29 01:21:48;;;;;;;4.57;3.90;;;1.90;1.00;;;;;;5036153;28;20514;-77
2024/01/29 01:24:14;;;;;;;10.90;3.53;;;2.40;1.00;;;;;;5043938;28;20628;-77
2024/01/29 01:26:39;;;;;;;5.30;3.70;;;2.20;1.00;;;;;;5033751;28;20556;-76
2024/01/29 01:29:05;;;;;;;8.00;4.90;;;1.10;1.00;;;;;;5039960;28;20258;-77
2024/01/29 01:31:30;;;;;;;6.40;3.90;;;1.80;1.00;;;;;;5038448;28;20563;-77
2024/01/29 01:33:56;;;;;;;5.30;3.57;;;2.10;1.00;;;;;;5044243;28;20185;-76
2024/01/29 01:36:22;;;;;;;5.90;4.20;;;1.70;1.00;;;;;;5048264;28;20188;-78
2024/01/29 01:38:48;;;;;;;8.60;3.60;;;2.00;1.00;;;;;;5035282;28;20612;-78
2024/01/29 01:41:13;;;;;;;5.83;3.53;;;1.70;1.00;;;;;;5046055;28;20208;-77
2024/01/29 01:43:39;;;;;;;7.77;3.70;;;2.10;1.00;;;;;;5035774;28;20188;-76
2024/01/29 01:46:05;;;;;;;4.60;3.20;;;2.20;1.00;;;;;;5049150;28;20460;-76
2024/01/29 01:48:34;;;;;;;4.10;3.33;;;1.70;1.00;;;;;;5031956;28;20194;-77
2024/01/29 01:51:00;;;;;;;5.27;3.87;;;1.60;1.00;;;;;;5048523;28;20387;-76
2024/01/29 01:53:29;;;;;;;5.27;3.37;;;1.80;1.00;;;;;;5046987;28;20489;-77
2024/01/29 01:55:55;;;;;;;5.70;4.17;;;1.60;1.00;;;;;;5041982;28;20422;-78
2024/01/29 01:58:24;;;;;;;5.00;4.00;;;1.60;1.00;;;;;;5032277;28;20431;-77
2024/01/29 02:00:49;;;;;;;8.50;5.33;;;1.60;1.00;;;;;;5039463;28;20209;-77
2024/01/29 02:03:15;;;;;;;8.00;5.13;;;1.60;1.00;;;;;;5036343;28;20431;-77
2024/01/29 02:05:41;;;;;;;7.93;4.47;;;1.90;1.00;;;;;;5046610;28;20280;-77
2024/01/29 02:08:07;;;;;;;6.07;4.67;;;2.00;1.00;;;;;;5044814;28;20551;-77
2024/01/29 02:10:33;;;;;;;7.20;4.83;;;1.60;1.00;;;;;;5031250;28;20209;-77
2024/01/29 02:12:58;;;;;;;9.03;5.40;;;1.50;1.00;;;;;;5033157;28;20983;-75
2024/01/29 02:15:24;;;;;;;9.23;6.10;;;1.50;1.00;;;;;;5045122;28;20365;-76
2024/01/29 02:17:49;;;;;;;11.27;6.40;;;1.50;1.00;;;;;;5047216;28;20661;-77
2024/01/29 02:20:16;;;;;;;14.77;6.27;;;1.30;1.00;;;;;;5034647;28;20260;-77
2024/01/29 02:22:45;;;;;;;11.30;6.63;;;1.30;1.00;;;;;;5034733;28;20264;-77
2024/01/29 02:25:12;;;;;;;12.47;6.93;;;1.30;1.00;;;;;;5039762;28;20408;-77
2024/01/29 02:27:38;;;;;;;14.47;6.73;;;1.20;1.00;;;;;;5047480;28;20420;-76
2024/01/29 02:30:05;;;;;;;13.47;7.03;;;1.30;1.00;;;;;;5048664;28;20406;-76
2024/01/29 02:32:30;;;;;;;11.57;6.40;;;1.30;1.00;;;;;;5037191;28;20205;-76
2024/01/29 02:34:56;;;;;;;13.03;6.17;;;1.30;1.00;;;;;;5050226;28;20458;-76
2024/01/29 02:37:21;;;;;;;11.93;6.00;;;1.30;1.00;;;;;;5047090;28;20193;-78
2024/01/29 02:39:50;;;;;;;16.13;7.20;;;1.30;1.00;;;;;;5048125;28;20261;-77
2024/01/29 02:42:17;;;;;;;12.23;6.17;;;1.30;1.00;;;;;;5048631;28;20203;-75
2024/01/29 02:44:43;;;;;;;14.23;6.77;;;1.30;1.00;;;;;;5040823;28;20812;-77
2024/01/29 02:47:08;;;;;;;19.03;6.40;;;1.10;1.00;;;;;;5032692;28;20431;-76
2024/01/29 02:49:34;;;;;;;12.70;6.60;;;1.10;1.00;;;;;;5042389;28;20177;-77
2024/01/29 02:51:59;;;;;;;12.70;7.40;;;1.10;1.00;;;;;;5038272;28;20587;-76
2024/01/29 02:54:25;;;;;;;10.43;6.50;;;1.40;1.00;;;;;;5043689;28;20556;-78
2024/01/29 02:56:50;;;;;;;12.60;6.63;;;1.50;1.00;;;;;;5052229;28;20177;-80
2024/01/29 02:59:16;;;;;;;8.80;6.13;;;1.00;1.00;;;;;;5042430;28;20640;-77
2024/01/29 03:01:41;;;;;;;15.13;6.23;;;1.10;1.00;;;;;;5048367;28;20205;-77
2024/01/29 03:04:07;;;;;;;14.07;6.50;;;1.10;1.00;;;;;;5043631;28;20173;-77
2024/01/29 03:06:33;;;;;;;10.27;5.50;;;1.10;1.00;;;;;;5033610;28;20212;-77
2024/01/29 03:08:59;;;;;;;9.83;6.07;;;1.10;1.00;;;;;;5046065;28;20527;-77
2024/01/29 03:11:24;;;;;;;11.17;5.30;;;1.10;1.00;;;;;;5043083;28;20463;-78
2024/01/29 03:13:50;;;;;;;15.17;5.20;;;1.40;1.00;;;;;;5051995;28;20189;-77
2024/01/29 03:16:15;;;;;;;11.57;6.00;;;1.00;1.00;;;;;;5044079;28;20177;-78
2024/01/29 03:18:41;;;;;;;8.17;5.37;;;1.40;1.00;;;;;;5048622;28;20170;-77
2024/01/29 03:21:06;;;;;;;8.00;5.50;;;1.10;1.00;;;;;;5038864;28;20198;-76
2024/01/29 03:23:32;;;;;;;10.30;5.30;;;1.60;1.00;;;;;;5041768;28;20561;-76
2024/01/29 03:25:57;;;;;;;10.07;5.60;;;1.50;1.00;;;;;;5041655;28;20291;-76
2024/01/29 03:28:23;;;;;;;8.27;5.60;;;1.50;1.00;;;;;;5043023;28;20645;-76
2024/01/29 03:30:48;;;;;;;9.23;5.10;;;1.10;1.00;;;;;;5051198;28;20201;-78
2024/01/29 03:33:14;;;;;;;10.50;5.50;;;1.30;1.00;;;;;;5044223;28;20212;-79
2024/01/29 03:35:39;;;;;;;7.57;5.20;;;1.10;1.00;;;;;;5048341;28;20284;-76
2024/01/29 03:38:05;;;;;;;9.40;5.73;;;1.50;1.00;;;;;;5049480;28;20773;-77
2024/01/29 03:40:31;;;;;;;9.20;5.10;;;1.10;1.00;;;;;;5050592;28;20271;-78
2024/01/29 03:42:56;;;;;;;8.00;5.13;;;1.10;1.00;;;;;;5047274;28;20169;-75
2024/01/29 03:45:22;;;;;;;7.40;5.00;;;1.10;1.00;;;;;;5043168;28;20189;-74
2024/01/29 03:47:47;;;;;;;8.97;5.40;;;1.00;1.00;;;;;;5050529;28;20571;-76
2024/01/29 03:50:12;;;;;;;8.63;4.97;;;0.90;1.00;;;;;;5036108;28;20232;-77
2024/01/29 03:52:38;;;;;;;10.93;5.03;;;0.90;1.00;;;;;;5045943;28;20263;-76
2024/01/29 03:55:04;;;;;;;7.27;4.57;;;0.90;1.00;;;;;;5040374;28;20173;-77
2024/01/29 03:57:29;;;;;;;10.03;5.30;;;0.90;1.00;;;;;;5047400;28;20181;-78
2024/01/29 03:59:56;;;;;;;6.20;5.07;;;1.30;1.00;;;;;;5040066;28;20276;-78
2024/01/29 04:02:23;;;;;;;6.50;4.83;;;0.90;1.00;;;;;;5040552;28;20244;-77
2024/01/29 04:04:48;;;;;;;10.10;4.90;;;0.80;1.00;;;;;;5046028;28;20409;-76
2024/01/29 04:07:15;;;;;;;6.87;4.40;;;0.80;1.00;;;;;;5034009;28;20431;-77
2024/01/29 04:09:41;;;;;;;6.43;4.30;;;0.80;1.00;;;;;;5046865;28;20189;-76
2024/01/29 04:12:07;;;;;;;6.83;4.37;;;0.80;1.00;;;;;;5034447;28;20491;-76
2024/01/29 04:14:32;;;;;;;8.77;4.07;;;0.80;1.00;;;;;;5041947;28;20181;-77
2024/01/29 04:16:58;;;;;;;5.67;3.83;;;0.80;1.00;;;;;;5047869;28;20674;-76
2024/01/29 04:19:23;;;;;;;5.60;4.30;;;;;;;;;;5045909;28;20173;-76
2024/01/29 04:21:49;;;;;;;6.43;4.30;;;0.80;1.00;;;;;;5039561;28;20682;-77
2024/01/29 04:24:15;;;;;;;6.20;4.37;;;0.80;1.00;;;;;;5039584;28;20686;-77
2024/01/29 04:26:41;;;;;;;8.67;4.30;;;0.80;1.00;;;;;;5039918;28;20272;-77
2024/01/29 04:29:08;;;;;;;8.10;4.37;;;1.30;1.00;;;;;;5042164;28;20521;-78
2024/01/29 04:31:34;;;;;;;6.97;4.43;;;1.00;1.00;;;;;;5042212;28;20201;-76
2024/01/29 04:34:00;;;;;;;6.50;4.27;;;1.00;1.00;;;;;;5041482;28;20507;-77
2024/01/29 04:36:25;;;;;;;7.63;4.73;;;1.40;1.00;;;;;;5038546;28;20496;-77
2024/01/29 04:38:51;;;;;;;6.10;4.00;;;0.70;1.00;;;;;;5040129;28;20180;-79
2024/01/29 04:41:21;;;;;;;6.47;4.50;;;1.20;1.00;;;;;;5050145;28;20201;-76
2024/01/29 04:43:47;;;;;;;6.83;4.30;;;1.20;1.00;;;;;;5033727;28;20267;-77
2024/01/29 04:46:12;;;;;;;6.47;4.77;;;1.30;1.00;;;;;;5036573;28;20428;-78
2024/01/29 04:48:39;;;;;;;5.60;4.40;;;1.30;1.00;;;;;;5039482;28;20769;-78
2024/01/29 04:51:05;;;;;;;5.90;3.93;;;1.40;1.00;;;;;;5035934;28;20211;-76
2024/01/29 04:53:31;;;;;;;6.90;4.20;;;1.40;1.00;;;;;;5034408;28;20421;-76
2024/01/29 04:55:56;;;;;;;7.97;4.60;;;1.80;1.00;;;;;;5033122;28;20416;-78
2024/01/29 04:58:22;;;;;;;6.93;4.20;;;1.80;1.00;;;;;;5040118;28;20323;-79
2024/01/29 05:00:47;;;;;;;6.30;3.70;;;1.40;1.00;;;;;;5042975;28;20653;-78
2024/01/29 05:03:13;;;;;;;6.50;4.37;;;1.80;1.00;;;;;;5037134;28;20196;-77
2024/01/29 05:05:38;;;;;;;6.50;4.60;;;1.70;1.00;;;;;;5037421;28;20189;-78
2024/01/29 05:08:04;;;;;;;7.67;4.63;;;1.30;1.00;;;;;;5036328;28;20260;-77
2024/01/29 05:10:30;;;;;;;7.70;4.43;;;1.30;1.00;;;;;;5047268;28;20200;-74
2024/01/29 05:12:56;;;;;;;6.00;4.40;;;1.80;1.00;;;;;;5036335;28;20424;-76
2024/01/29 05:15:22;;;;;;;7.00;4.40;;;1.70;1.00;;;;;;5045084;28;20276;-77
2024/01/29 05:17:47;;;;;;;6.13;4.50;;;1.60;1.00;;;;;;5038405;28;20927;-78
2024/01/29 05:20:13;;;;;;;8.30;4.30;;;1.20;1.00;;;;;;5042145;28;20563;-74
2024/01/29 05:22:38;;;;;;;5.80;4.20;;;1.20;1.00;;;;;;5047741;28;20177;-76
2024/01/29 05:25:04;;;;;;;7.60;4.77;;;1.20;1.00;;;;;;5038855;28;20173;-75
2024/01/29 05:27:29;;;;;;;5.90;3.80;;;1.20;1.00;;;;;;5039045;28;20204;-77
2024/01/29 05:29:55;;;;;;;8.07;4.63;;;1.50;1.00;;;;;;5038559;28;20177;-77
2024/01/29 05:32:21;;;;;;;8.40;3.93;;;1.00;1.00;;;;;;5032233;28;20293;-77
2024/01/29 05:34:46;;;;;;;7.67;4.67;;;0.90;1.00;;;;;;5034991;28;20262;-76
2024/01/29 05:37:12;;;;;;;5.57;4.17;;;0.90;1.00;;;;;;5041524;28;20182;-78
2024/01/29 05:39:38;;;;;;;6.27;4.27;;;1.30;1.00;;;;;;5040421;28;20185;-77
2024/01/29 05:42:04;;;;;;;7.97;4.80;;;0.90;1.00;;;;;;5040788;28;20204;-76
2024/01/29 05:44:29;;;;;;;8.47;4.30;;;0.90;1.00;;;;;;5045053;28;20196;-77
2024/01/29 05:46:55;;;;;;;6.43;4.03;;;0.90;1.00;;;;;;5035513;28;20429;-76
2024/01/29 05:49:22;;;;;;;8.53;4.17;;;0.90;1.00;;;;;;5033830;28;20218;-78
2024/01/29 05:51:48;;;;;;;8.40;4.40;;;0.90;1.00;;;;;;5042423;28;20210;-77
2024/01/29 05:54:14;;;;;;;7.93;4.27;;;1.00;1.00;;;;;;5036674;28;20417;-77
2024/01/29 05:56:42;;;;;;;7.07;4.40;;;1.00;1.00;;;;;;5040476;28;20264;-77
2024/01/29 05:59:08;;;;;;;13.80;5.00;;;1.30;1.00;;;;;;5034723;28;20170;-77
2024/01/29 06:01:34;;;;;;;6.63;4.27;;;1.00;1.00;;;;;;5036793;28;21000;-80
2024/01/29 06:04:00;;;;;;;10.73;4.87;;;1.00;1.00;;;;;;5028586;28;20173;-77
2024/01/29 06:06:27;;;;;;;9.30;4.90;;;0.90;1.00;;;;;;5037826;28;20405;-80
2024/01/29 06:08:52;;;;;;;6.80;4.77;;;1.00;1.00;;;;;;5038317;28;20243;-77
2024/01/29 06:11:19;;;;;;;7.97;4.10;;;1.00;1.00;;;;;;5044055;28;20842;-76
2024/01/29 06:13:45;;;;;;;5.93;4.20;;;1.00;1.00;;;;;;5032508;28;20174;-77
2024/01/29 06:16:11;;;;;;;9.00;4.00;;;1.40;1.00;;;;;;5034484;28;20420;-77
2024/01/29 06:18:37;;;;;;;6.93;4.77;;;1.40;1.00;;;;;;5036697;28;20650;-74
2024/01/29 06:21:03;;;;;;;7.80;5.30;;;1.00;1.00;;;;;;5047023;28;20195;-77
2024/01/29 06:23:28;;;;;;;8.23;4.37;;;1.00;1.00;;;;;;5035731;28;20858;-77
2024/01/29 06:25:54;;;;;;;6.60;4.73;;;1.50;1.00;;;;;;5036274;28;20425;-78
2024/01/29 06:28:20;;;;;;;8.10;4.53;;;1.60;1.00;;;;;;5045589;28;20212;-78
2024/01/29 06:30:45;;;;;;;6.07;4.57;;;1.00;1.00;;;;;;5043230;28;20201;-76
2024/01/29 06:33:11;;;;;;;13.90;4.63;;;1.40;1.00;;;;;;5040793;28;20185;-78
2024/01/29 06:35:36;;;;;;;10.23;4.87;;;1.00;1.00;;;;;;5045901;28;20608;-78
2024/01/29 06:38:05;;;;;;;6.00;4.73;;;1.00;1.00;;;;;;5033851;28;20706;-78
2024/01/29 06:40:30;;;;;;;6.43;4.47;;;1.10;1.00;;;;;;5027093;28;20243;-74
2024/01/29 06:42:57;;;;;;;6.80;4.43;;;1.10;1.00;;;;;;5040968;28;20902;-73
2024/01/29 06:45:22;;;;;;;6.97;4.00;;;1.00;1.00;;;;;;5047979;28;20655;-77
2024/01/29 06:47:48;;;;;;;5.20;4.10;;;1.10;1.00;;;;;;5047796;28;20417;-76
2024/01/29 06:50:13;;;;;;;8.53;4.70;;;1.10;1.00;;;;;;5043956;28;20547;-77
2024/01/29 06:52:39;;;;;;;6.20;4.10;;;1.10;1.00;;;;;;5044322;28;20204;-75
2024/01/29 06:55:05;;;;;;;6.33;4.50;;;1.10;1.00;;;;;;5044880;28;20651;-76
2024/01/29 06:57:31;;;;;;;7.80;4.30;;;1.20;1.00;;;;;;5034131;28;20640;-76
2024/01/29 06:59:56;;;;;;;10.33;4.83;;;1.10;1.00;;;;;;5040069;28;20490;-75
2024/01/29 07:02:22;;;;;;;6.40;3.90;;;1.10;1.00;;;;;;5032677;28;20289;-76
2024/01/29 07:04:48;;;;;;;6.37;4.07;;;1.10;1.00;;;;;;5039002;28;20283;-76
2024/01/29 07:07:13;;;;;;;6.60;4.37;;;1.50;1.00;;;;;;5042282;28;20707;-75
2024/01/29 07:09:40;;;;;;;6.40;4.60;;;1.10;1.00;;;;;;5040241;28;20192;-76
2024/01/29 07:12:06;;;;;;;7.33;4.43;;;1.20;1.00;;;;;;5040868;28;20193;-75
2024/01/29 07:14:31;;;;;;;10.80;6.10;;;1.20;1.00;;;;;;5043127;28;20472;-76
2024/01/29 07:16:57;;;;;;;10.27;5.60;;;1.20;1.00;;;;;;5040267;28;20190;-75
2024/01/29 07:19:25;;;;;;;11.40;4.53;;;1.70;1.00;;;;;;5042922;28;20690;-75
2024/01/29 07:21:51;;;;;;;6.60;4.53;;;1.30;1.00;;;;;;5041658;28;20592;-77
2024/01/29 07:24:17;;;;;;;8.97;4.23;;;1.40;1.00;;;;;;5048157;28;20427;-75
2024/01/29 07:26:42;;;;;;;6.87;4.40;;;1.40;1.00;;;;;;5038762;28;20201;-77
2024/01/29 07:29:08;;;;;;;6.23;4.30;;;1.40;1.00;;;;;;5049208;28;20470;-77
2024/01/29 07:31:33;;;;;;;7.47;4.77;;;1.50;1.00;;;;;;5036523;28;20463;-76
2024/01/29 07:33:59;;;;;;;7.07;4.50;;;1.50;1.00;;;;;;5045801;28;20193;-77
2024/01/29 07:36:28;;;;;;;6.10;4.43;;;1.50;1.00;;;;;;5044230;28;20177;-77
2024/01/29 07:38:54;;;;;;;7.80;4.60;;;1.60;1.00;;;;;;5028848;28;20181;-77
2024/01/29 07:41:20;;;;;;;6.63;4.50;;;1.70;1.00;;;;;;5032629;28;20440;-76
2024/01/29 07:43:46;;;;;;;9.27;5.50;;;1.70;1.00;;;;;;5040532;28;20195;-76
2024/01/29 07:46:12;;;;;;;7.90;5.80;;;1.80;1.00;;;;;;5035117;28;20185;-78
2024/01/29 07:48:37;;;;;;;14.23;5.00;;;1.80;1.00;;;;;;5085091;22;20500;-72
2024/01/29 07:51:03;;;;;;;8.30;4.83;;;1.80;1.00;;;;;;5010876;28;20215;-72
2024/01/29 07:53:28;;;;;;;9.70;5.10;;;1.90;1.00;;;;;;5031915;28;20189;-72
2024/01/29 07:55:54;;;;;;;11.37;5.33;;;2.40;1.00;;;;;;5028102;28;20212;-71
2024/01/29 07:58:20;;;;;;;9.07;5.67;;;1.90;1.00;;;;;;5025705;28;20266;-72
2024/01/29 08:00:46;;;;;;;7.37;4.70;;;2.00;1.00;;;;;;5019789;28;20194;-73
2024/01/29 08:03:11;;;;;;;8.00;4.67;;;2.10;1.00;;;;;;5013529;28;20432;-72
2024/01/29 08:05:37;;;;;;;7.23;5.33;;;2.40;1.00;;;;;;5031792;28;20186;-72
2024/01/29 08:08:03;;;;;;;6.37;4.60;;;2.30;1.00;;;;;;5010899;28;20204;-71
2024/01/29 08:10:28;;;;;;;9.40;5.90;;;2.40;1.00;;;;;;5027593;28;20178;-72
2024/01/29 08:12:54;;;;;;;6.33;5.07;;;3.00;1.00;;;;;;5030252;28;20513;-72
2024/01/29 08:15:19;;;;;;;9.27;5.03;;;2.70;1.00;;;;;;5013683;28;20656;-72
2024/01/29 08:17:45;;;;;;;6.93;4.20;;;3.00;1.00;;;;;;5030983;28;20212;-73
2024/01/29 08:20:11;;;;;;;8.50;4.67;;;3.10;1.00;;;;;;5030222;28;20212;-72
2024/01/29 08:22:36;;;;;;;8.17;4.40;;;3.60;1.00;;;;;;5029053;28;20193;-72
2024/01/29 08:25:02;;;;;;;7.87;5.10;;;3.40;1.00;;;;;;5029098;28;20647;-73
2024/01/29 08:27:29;;;;;;;10.90;5.90;;;3.60;1.00;;;;;;5029713;28;20237;-73
2024/01/29 08:29:54;;;;;;;5.93;4.30;;;4.00;1.00;;;;;;5030855;28;20178;-72
2024/01/29 08:32:21;;;;;;;6.77;4.30;;;4.10;1.00;;;;;;5030730;28;20587;-72
2024/01/29 08:34:47;;;;;;;5.63;4.53;;;4.20;1.00;;;;;;5024124;28;20264;-73
2024/01/29 08:37:13;;;;;;;7.60;4.87;;;4.60;1.00;;;;;;5008849;28;20588;-72
2024/01/29 08:39:39;;;;;;;6.90;4.90;;;4.90;1.00;;;;;;5012860;28;20970;-72
2024/01/29 08:42:06;;;;;;;8.37;5.20;;;5.10;1.00;;;;;;5030335;28;20201;-72
2024/01/29 08:44:32;;;;;;;7.03;5.00;;;5.20;1.00;;;;;;5013294;28;20690;-72
2024/01/29 08:46:57;;;;;;;5.83;4.00;;;5.50;1.00;;;;;;5010774;28;20463;-72
2024/01/29 08:49:23;;;;;;;6.27;4.30;;;5.50;1.00;;;;;;5009077;28;21006;-72
2024/01/29 08:51:49;;;;;;;6.03;4.30;;;5.80;1.00;;;;;;5011719;28;20210;-72
2024/01/29 08:54:14;;;;;;;6.93;4.50;;;6.00;1.00;;;;;;5012861;28;20264;-72
2024/01/29 08:56:41;;;;;;;6.40;4.70;;;6.20;1.00;;;;;;5030647;28;20465;-72
2024/01/29 08:59:07;;;;;;;6.17;4.17;;;6.40;1.00;;;;;;5012288;28;20759;-72
2024/01/29 09:01:33;;;;;;;5.87;4.20;;;6.50;1.00;;;;;;5028280;28;20527;-73
2024/01/29 09:03:59;;;;;;;7.80;4.57;;;6.60;1.00;;;;;;5011775;28;20524;-73
2024/01/29 09:06:24;;;;;;;11.93;5.10;;;6.80;1.00;;;;;;5030516;28;20254;-71
2024/01/29 09:08:50;;;;;;;8.80;4.73;;;6.80;1.00;;;;;;5012256;28;20208;-73
2024/01/29 09:11:16;;;;;;;7.00;4.43;;;6.90;1.00;;;;;;5009623;28;20205;-72
2024/01/29 09:13:41;;;;;;;7.87;4.33;;;7.10;1.00;;;;;;5008473;28;20182;-73
2024/01/29 09:16:09;;;;;;;6.70;4.40;;;7.10;1.00;;;;;;5004690;28;20431;-72
2024/01/29 09:18:34;;;;;;;9.20;4.50;;;7.20;1.00;;;;;;5022781;28;20205;-73
2024/01/29 09:21:00;;;;;;;6.73;4.70;;;7.40;1.00;;;;;;5027806;28;20432;-73
2024/01/29 09:23:25;;;;;;;6.00;4.20;;;7.50;1.00;;;;;;5012526;28;20190;-73
2024/01/29 09:25:51;;;;;;;7.80;4.47;;;7.90;1.00;;;;;;5008219;28;20276;-73
2024/01/29 09:28:17;;;;;;;7.93;4.77;;;9.40;1.00;;;;;;5012183;28;20701;-74
2024/01/29 09:30:42;;;;;;;8.93;4.50;;;10.20;1.00;;;;;;5012430;28;20178;-74
2024/01/29 09:33:08;;;;;;;6.90;4.73;;;11.10;1.00;;;;;;5028924;28;20181;-73
2024/01/29 09:35:33;;;;;;;7.53;4.90;;;11.80;1.00;;;;;;5029712;28;20182;-74
2024/01/29 09:37:58;;;;;;;5.60;4.27;;;13.20;1.00;;;;;;5001839;28;20235;-74
2024/01/29 09:40:24;;;;;;;5.60;4.47;;;13.70;1.00;;;;;;5027449;28;20257;-75
2024/01/29 09:42:51;;;;;;;7.53;5.10;;;14.50;1.00;;;;;;5029722;28;20655;-74
2024/01/29 09:45:25;;;;;;;8.07;5.17;;;15.20;1.00;;;;;;5024395;28;20186;-75
2024/01/29 09:47:55;;;;;;;7.00;5.70;;;16.00;1.00;;;;;;5007639;28;20461;-75
2024/01/29 09:50:26;;;;;;;10.87;6.20;;;16.20;1.00;;;;;;5021950;28;20439;-75
2024/01/29 09:52:52;;;;;;;12.47;6.77;;;16.60;1.00;;;;;;5028817;28;20502;-75
2024/01/29 09:55:18;;;;;;;9.60;7.00;;;16.90;1.00;;;;;;5010405;28;20421;-75
2024/01/29 09:57:44;;;;;;;9.90;6.57;;;17.80;1.00;;;;;;5011196;28;20451;-75
2024/01/29 10:00:12;;;;;;;8.53;6.50;;;18.00;1.00;;;;;;5029508;28;20671;-74
2024/01/29 10:02:40;;;;;;;9.80;6.77;;;17.90;1.00;;;;;;5028728;28;20880;-73
2024/01/29 10:05:08;;;;;;;9.87;6.63;;;17.20;1.00;;;;;;5025403;28;20420;-75
2024/01/29 10:07:34;;;;;;;9.90;7.00;;;16.40;1.00;;;;;;5011394;28;20451;-75
2024/01/29 10:10:10;;;;;;;8.73;6.33;;;15.90;1.00;;;;;;5011249;28;20428;-74
2024/01/29 10:12:35;;;;;;;8.67;6.57;;;15.10;1.00;;;;;;5030115;28;20559;-74
2024/01/29 10:15:01;;;;;;;8.30;6.20;;;14.50;1.00;;;;;;5027753;28;20512;-75
2024/01/29 10:17:27;;;;;;;8.40;5.23;;;13.40;1.00;;;;;;5023222;28;20675;-75
2024/01/29 10:19:53;;;;;;;5.27;4.63;;;13.50;1.00;;;;;;5011677;28;20189;-75
2024/01/29 10:22:24;;;;;;;6.63;4.83;;;12.90;1.00;;;;;;5027661;28;20509;-73
2024/01/29 10:24:59;;;;;;;8.07;5.13;;;13.50;1.00;;;;;;5008245;28;20185;-74
2024/01/29 10:27:25;;;;;;;6.30;4.60;;;13.10;1.00;;;;;;5027677;28;20428;-74
2024/01/29 10:29:50;;;;;;;6.40;4.77;;;13.10;1.00;;;;;;5011144;28;20436;-74
2024/01/29 10:32:16;;;;;;;7.60;5.00;;;13.50;1.00;;;;;;5028774;28;20474;-74
2024/01/29 10:34:42;;;;;;;6.33;5.10;;;13.70;1.00;;;;;;5028637;28;20190;-75
2024/01/29 10:37:07;;;;;;;8.60;5.20;;;13.10;1.00;;;;;;5028921;28;20240;-74
2024/01/29 10:39:36;;;;;;;5.37;4.43;;;13.10;1.00;;;;;;5011393;28;20193;-74
2024/01/29 10:42:02;;;;;;;7.10;4.77;;;12.40;1.00;;;;;;5028928;28;20190;-73
2024/01/29 10:44:32;;;;;;;7.00;5.13;;;12.00;1.00;;;;;;5009062;28;20451;-74
2024/01/29 10:46:59;;;;;;;5.37;4.17;;;11.70;1.00;;;;;;5020897;28;20194;-74
2024/01/29 10:49:26;;;;;;;6.37;4.57;;;11.60;1.00;;;;;;5020837;28;20917;-74
2024/01/29 10:51:53;;;;;;;10.60;4.90;;;12.60;1.00;;;;;;5014102;28;20513;-74
2024/01/29 10:54:19;;;;;;;6.20;4.90;;;14.80;1.00;;;;;;5032123;28;20426;-74
2024/01/29 10:56:46;;;;;;;6.70;5.50;;;20.60;1.00;;;;;;5032195;28;20424;-74
2024/01/29 10:59:13;;;;;;;8.80;6.47;;;20.60;1.00;;;;;;5028507;28;20467;-75
2024/01/29 11:01:41;;;;;;;9.30;6.23;;;22.70;1.00;;;;;;5014649;28;20420;-75
2024/01/29 11:04:09;;;;;;;11.43;6.90;;;24.10;1.00;;;;;;5031931;28;20530;-75
2024/01/29 11:06:51;;;;;;;10.50;6.70;;;24.90;1.00;;;;;;5033238;28;20438;-76
2024/01/29 11:09:22;;;;;;;10.20;5.70;;;25.50;1.00;;;;;;5031794;28;20428;-76
2024/01/29 11:11:51;;;;;;;8.37;5.80;;;26.80;1.00;;;;;;5031910;28;20992;-75
2024/01/29 11:14:21;;;;;;;8.00;5.87;;;27.10;1.00;;;;;;5013539;28;20767;-75
2024/01/29 11:16:47;;;;;;;8.97;6.20;;;26.20;1.00;;;;;;5028661;28;20220;-76
2024/01/29 11:19:13;;;;;;;8.80;6.23;;;26.20;1.00;;;;;;5030137;28;20181;-76
2024/01/29 11:21:52;;;;;;;9.67;6.57;;;25.80;1.00;;;;;;5013096;28;20196;-75
2024/01/29 11:24:21;;;;;;;9.37;6.60;;;26.30;1.00;;;;;;5031843;28;20279;-76
2024/01/29 11:26:47;;;;;;;9.33;6.30;;;27.70;1.00;;;;;;5032804;28;20220;-75
2024/01/29 11:29:17;;;;;;;8.03;6.33;;;27.60;1.00;;;;;;5029800;28;20268;-76
2024/01/29 11:31:45;;;;;;;9.20;6.50;;;27.50;1.00;;;;;;5013798;28;20520;-76
2024/01/29 11:34:12;;;;;;;10.20;7.00;;;27.40;1.00;;;;;;5028733;28;20549;-76
2024/01/29 11:36:38;;;;;;;8.10;5.63;;;27.70;1.00;;;;;;5013885;28;20193;-76
2024/01/29 11:39:04;;;;;;;10.00;6.65;;;27.70;1.00;;;;;;5013261;28;20229;-76
2024/01/29 11:41:32;;;;;;;6.67;5.47;;;27.40;1.00;;;;;;5031545;28;20189;-76
2024/01/29 11:43:59;;;;;;;6.90;5.40;;;26.70;1.00;;;;;;5031707;28;20193;-76
2024/01/29 11:46:27;;;;;;;8.67;6.03;;;26.30;1.00;;;;;;5024191;28;20209;-76
2024/01/29 11:48:55;;;;;;;6.80;5.47;;;26.10;1.00;;;;;;5024457;28;20216;-75
2024/01/29 11:51:21;;;;;;;6.90;5.43;;;26.00;1.00;;;;;;5012530;28;20714;-74
2024/01/29 11:53:51;;;;;;;8.63;5.77;;;25.90;1.00;;;;;;5031780;28;20189;-75
2024/01/29 11:56:17;;;;;;;8.57;5.93;;;25.60;1.00;;;;;;5026361;28;20257;-75
2024/01/29 11:58:43;;;;;;;8.97;5.93;;;25.20;1.00;;;;;;5023934;28;20668;-76
2024/01/29 12:01:09;;;;;;;8.97;5.70;;;24.90;1.00;;;;;;5008165;28;20182;-76
2024/01/29 12:03:35;;;;;;;7.60;5.83;;;24.60;1.00;;;;;;5005588;28;20436;-74
2024/01/29 12:06:01;;;;;;;10.80;6.43;;;24.80;1.00;;;;;;5027811;28;20429;-75
2024/01/29 12:08:27;;;;;;;9.47;6.53;;;25.50;1.00;;;;;;5029919;28;20451;-75
2024/01/29 12:11:00;;;;;;;10.63;6.60;;;25.60;1.00;;;;;;5031985;28;20563;-76
2024/01/29 12:13:25;;;;;;;9.50;6.30;;;25.20;1.00;;;;;;5031125;28;20177;-74
2024/01/29 12:15:53;;;;;;;8.83;6.57;;;24.60;1.00;;;;;;5011791;28;20468;-76
2024/01/29 12:18:21;;;;;;;7.57;5.50;;;23.40;1.00;;;;;;5007191;28;20766;-75
2024/01/29 12:20:50;;;;;;;9.30;6.00;;;22.40;1.00;;;;;;5008885;28;20423;-74
2024/01/29 12:23:17;;;;;;;7.90;5.77;;;21.40;1.00;;;;;;5031478;28;20918;-75
2024/01/29 12:25:46;;;;;;;10.73;6.30;;;21.00;1.00;;;;;;5029316;28;20427;-74
2024/01/29 12:28:15;;;;;;;8.40;6.30;;;21.20;1.00;;;;;;5031527;28;20447;-74
2024/01/29 12:30:41;;;;;;;8.27;5.80;;;21.30;1.00;;;;;;5028249;28;20431;-73
2024/01/29 12:33:07;;;;;;;9.30;6.37;;;21.90;1.00;;;;;;5031242;28;20422;-75
2024/01/29 12:35:36;;;;;;;8.83;6.13;;;23.00;1.00;;;;;;5030163;28;20432;-75
2024/01/29 12:38:05;;;;;;;10.83;6.47;;;23.30;1.00;;;;;;5030772;28;20471;-74
2024/01/29 12:40:31;;;;;;;9.33;6.17;;;23.30;1.00;;;;;;5030764;28;20428;-75
2024/01/29 12:43:01;;;;;;;10.13;6.60;;;23.10;1.00;;;;;;5007228;28;20527;-75
2024/01/29 12:45:26;;;;;;;8.20;6.10;;;23.00;1.00;;;;;;5007190;28;20180;-75
2024/01/29 12:48:04;;;;;;;8.90;5.87;;;22.80;1.00;;;;;;5007579;28;20509;-75
2024/01/29 12:50:29;;;;;;;8.60;6.00;;;22.20;1.00;;;;;;5030716;28;20617;-75
2024/01/29 12:52:55;;;;;;;8.97;6.20;;;20.60;1.00;;;;;;5030525;28;20546;-75
2024/01/29 12:55:20;;;;;;;10.60;6.53;;;19.70;1.00;;;;;;5028521;28;20181;-75
2024/01/29 12:57:46;;;;;;;9.30;6.43;;;20.30;1.00;;;;;;5030599;28;20201;-74